Time;durP1;ratioP1;P1;durP2;ratioP2;P2;SDS_P1;SDS_P2;PMS_P1;PMS_P2;Temp;Humidity;BMP_temperature;BMP_pressure;BME280_temperature;BME280_humidity;BME280_pressure;Samples;Min_cycle;Max_cycle;Signal;HPM_P1;HPM_P2
2022/01/06 00:00:41;;;;;;;;;;;;;;;;;;4222042;28;836;-60
2022/01/06 00:03:02;;;;;;;;;;;;;;;;;;4221637;28;920;-61
2022/01/06 00:05:22;;;;;;;;;;;;;;;;;;4222137;28;1151;-61
2022/01/06 00:07:42;;;;;;;;;;;;;;;;;;4221669;28;997;-61
2022/01/06 00:10:05;;;;;;;;;;;;;;;;;;4222099;28;1910;-60
2022/01/06 00:12:33;;;;;;;;;;;;;;;;;;4221802;28;1335;-60
2022/01/06 00:15:00;;;;;;;;;;;;;;;;;;4221545;28;1246;-60
2022/01/06 00:17:35;;;;;;;;;;;;;;;;;;4221440;28;1205;-62
2022/01/06 00:25:12;;;;;;;;;;;;;;;;;;4221707;28;1004;-61
2022/01/06 00:27:33;;;;;;;;;;;;;;;;;;4221329;28;1157;-61
2022/01/06 00:29:53;;;;;;;;;;;;;;;;;;4221611;28;1979;-61
2022/01/06 00:32:13;;;;;;;;;;;;;;;;;;4223164;28;1179;-61
2022/01/06 00:34:34;;;;;;;;;;;;;;;;;;4227235;28;1066;-60
2022/01/06 00:36:54;;;;;;;;;;;;;;;;;;4227015;28;970;-61
2022/01/06 00:39:14;;;;;;;;;;;;;;;;;;4227189;28;983;-60
2022/01/06 00:41:36;;;;;;;;;;;;;;;;;;4227187;28;930;-61
2022/01/06 00:43:57;;;;;;;;;;;;;;;;;;4226882;28;1091;-60
2022/01/06 00:46:17;;;;;;;;;;;;;;;;;;4227118;28;1158;-61
2022/01/06 00:48:37;;;;;;;;;;;;;;;;;;4226859;28;929;-61
2022/01/06 00:50:57;;;;;;;;;;;;;;;;;;4226941;28;914;-61
2022/01/06 00:53:18;;;;;;;;;;;;;;;;;;4226880;28;1512;-60
2022/01/06 00:55:38;;;;;;;;;;;;;;;;;;4227078;28;1109;-61
2022/01/06 00:57:59;;;;;;;;;;;;;;;;;;4226983;28;1081;-61
2022/01/06 01:00:19;;;;;;;;;;;;;;;;;;4226844;28;1074;-61
2022/01/06 01:02:39;;;;;;;;;;;;;;;;;;4227050;28;1287;-61
2022/01/06 01:05:00;;;;;;;;;;;;;;;;;;4226669;28;1105;-61
2022/01/06 01:07:21;;;;;;;;;;;;;;;;;;4226789;28;1044;-61
2022/01/06 01:09:41;;;;;;;;;;;;;;;;;;4226599;28;1974;-61
2022/01/06 01:12:03;;;;;;;;;;;;;;;;;;4226620;28;930;-61
2022/01/06 01:14:28;;;;;;;;;;;;;;;;;;4226686;28;1004;-61
2022/01/06 01:16:54;;;;;;;;;;;;;;;;;;4226576;28;1133;-61
2022/01/06 01:19:15;;;;;;;;;;;;;;;;;;4226291;28;1000;-61
2022/01/06 01:21:35;;;;;;;;;;;;;;;;;;4226471;28;1018;-60
2022/01/06 01:23:55;;;;;;;;;;;;;;;;;;4226604;28;1000;-60
2022/01/06 01:26:16;;;;;;;;;;;;;;;;;;4226431;28;961;-61
2022/01/06 01:28:43;;;;;;;;;;;;;;;;;;4226402;28;1020;-60
2022/01/06 01:31:18;;;;;;;;;;;;;;;;;;4226882;28;1131;-61
2022/01/06 01:33:39;;;;;;;;;;;;;;;;;;4226336;28;1220;-61
2022/01/06 01:35:59;;;;;;;;;;;;;;;;;;4226664;28;1332;-61
2022/01/06 01:38:20;;;;;;;;;;;;;;;;;;4226460;28;950;-61
2022/01/06 01:40:40;;;;;;;;;;;;;;;;;;4226604;28;939;-61
2022/01/06 01:43:01;;;;;;;;;;;;;;;;;;4226521;28;1009;-60
2022/01/06 01:45:27;;;;;;;;;;;;;;;;;;4222886;28;1271;-60
2022/01/06 01:47:47;;;;;;;;;;;;;;;;;;4222220;28;1023;-61
2022/01/06 01:50:12;;;;;;;;;;;;;;;;;;4223577;28;1981;-61
2022/01/06 01:52:33;;;;;;;;;;;;;;;;;;4223776;28;986;-60
2022/01/06 01:54:53;;;;;;;;;;;;;;;;;;4223427;28;1096;-61
2022/01/06 01:57:13;;;;;;;;;;;;;;;;;;4223722;28;1088;-61
2022/01/06 01:59:34;;;;;;;;;;;;;;;;;;4223424;28;1059;-61
2022/01/06 02:01:54;;;;;;;;;;;;;;;;;;4223090;28;1046;-60
2022/01/06 02:04:14;;;;;;;;;;;;;;;;;;4222613;28;1104;-61
2022/01/06 02:06:35;;;;;;;;;;;;;;;;;;4222628;28;1147;-61
2022/01/06 02:08:55;;;;;;;;;;;;;;;;;;4222767;28;993;-61
2022/01/06 02:11:15;;;;;;;;;;;;;;;;;;4222730;28;920;-60
2022/01/06 02:13:36;;;;;;;;;;;;;;;;;;4222250;28;1148;-61
2022/01/06 02:15:58;;;;;;;;;;;;;;;;;;4222693;28;1352;-61
2022/01/06 02:18:18;;;;;;;;;;;;;;;;;;4222684;28;1312;-61
2022/01/06 02:20:38;;;;;;;;;;;;;;;;;;4222604;28;1096;-60
2022/01/06 02:22:58;;;;;;;;;;;;;;;;;;4222532;28;1134;-60
2022/01/06 02:25:19;;;;;;;;;;;;;;;;;;4222795;28;1176;-61
2022/01/06 02:27:39;;;;;;;;;;;;;;;;;;4222673;28;1018;-60
2022/01/06 02:30:00;;;;;;;;;;;;;;;;;;4222776;28;1979;-61
2022/01/06 02:32:22;;;;;;;;;;;;;;;;;;4222349;28;1350;-61
2022/01/06 02:34:42;;;;;;;;;;;;;;;;;;4222645;28;1373;-61
2022/01/06 02:37:03;;;;;;;;;;;;;;;;;;4222467;28;1238;-60
2022/01/06 02:39:23;;;;;;;;;;;;;;;;;;4222315;28;1208;-62
2022/01/06 02:41:43;;;;;;;;;;;;;;;;;;4222748;28;925;-60
2022/01/06 02:44:03;;;;;;;;;;;;;;;;;;4222017;28;1470;-61
2022/01/06 02:46:24;;;;;;;;;;;;;;;;;;4222126;28;1120;-61
2022/01/06 02:48:44;;;;;;;;;;;;;;;;;;4222308;28;1126;-61
2022/01/06 02:51:05;;;;;;;;;;;;;;;;;;4222206;28;1906;-61
2022/01/06 02:53:25;;;;;;;;;;;;;;;;;;4222449;28;1049;-61
2022/01/06 02:55:50;;;;;;;;;;;;;;;;;;4222252;28;1383;-60
2022/01/06 02:58:10;;;;;;;;;;;;;;;;;;4221494;28;1033;-61
2022/01/06 03:00:31;;;;;;;;;;;;;;;;;;4222301;28;1016;-61
2022/01/06 03:02:51;;;;;;;;;;;;;;;;;;4222473;28;986;-61
2022/01/06 03:05:11;;;;;;;;;;;;;;;;;;4222285;28;1238;-61
2022/01/06 03:07:31;;;;;;;;;;;;;;;;;;4222733;28;1054;-61
2022/01/06 03:09:54;;;;;;;;;;;;;;;;;;4222335;28;1971;-61
2022/01/06 03:12:23;;;;;;;;;;;;;;;;;;4222225;28;1089;-61
2022/01/06 03:14:43;;;;;;;;;;;;;;;;;;4222406;28;1045;-61
2022/01/06 03:17:04;;;;;;;;;;;;;;;;;;4222053;28;1292;-61
2022/01/06 03:19:24;;;;;;;;;;;;;;;;;;4222246;28;1262;-60
2022/01/06 03:21:45;;;;;;;;;;;;;;;;;;4222331;28;1097;-61
2022/01/06 03:24:05;;;;;;;;;;;;;;;;;;4222437;28;844;-61
2022/01/06 03:26:25;;;;;;;;;;;;;;;;;;4222337;28;976;-61
2022/01/06 03:28:45;;;;;;;;;;;;;;;;;;4223007;28;895;-61
2022/01/06 03:31:05;;;;;;;;;;;;;;;;;;4222145;28;1979;-61
2022/01/06 03:33:26;;;;;;;;;;;;;;;;;;4222264;28;1053;-61
2022/01/06 03:35:47;;;;;;;;;;;;;;;;;;4222056;28;1084;-61
2022/01/06 03:38:07;;;;;;;;;;;;;;;;;;4222397;28;1038;-60
2022/01/06 03:40:28;;;;;;;;;;;;;;;;;;4222084;28;1016;-61
2022/01/06 03:42:48;;;;;;;;;;;;;;;;;;4221779;28;1175;-61
2022/01/06 03:45:08;;;;;;;;;;;;;;;;;;4221852;28;1026;-60
2022/01/06 03:47:28;;;;;;;;;;;;;;;;;;4220737;28;1404;-61
2022/01/06 03:49:49;;;;;;;;;;;;;;;;;;4221891;28;1906;-61
2022/01/06 03:52:09;;;;;;;;;;;;;;;;;;4221822;28;1326;-60
2022/01/06 03:54:29;;;;;;;;;;;;;;;;;;4221869;28;1112;-61
2022/01/06 03:56:50;;;;;;;;;;;;;;;;;;4222066;28;1011;-61
2022/01/06 03:59:10;;;;;;;;;;;;;;;;;;4221447;28;1469;-61
2022/01/06 04:01:30;;;;;;;;;;;;;;;;;;4221980;28;1029;-60
2022/01/06 04:03:50;;;;;;;;;;;;;;;;;;4221615;28;1266;-61
2022/01/06 04:06:11;;;;;;;;;;;;;;;;;;4221842;28;1035;-61
2022/01/06 04:08:31;;;;;;;;;;;;;;;;;;4221278;28;1112;-60
2022/01/06 04:10:51;;;;;;;;;;;;;;;;;;4221927;28;1910;-60
2022/01/06 04:13:11;;;;;;;;;;;;;;;;;;4221540;28;1072;-60
2022/01/06 04:15:31;;;;;;;;;;;;;;;;;;4221677;28;1214;-61
2022/01/06 04:17:52;;;;;;;;;;;;;;;;;;4221443;28;1377;-61
2022/01/06 04:20:12;;;;;;;;;;;;;;;;;;4221826;28;1041;-61
2022/01/06 04:22:32;;;;;;;;;;;;;;;;;;4221653;28;1133;-61
2022/01/06 04:24:52;;;;;;;;;;;;;;;;;;4221821;28;929;-61
2022/01/06 04:27:12;;;;;;;;;;;;;;;;;;4221570;28;998;-61
2022/01/06 04:29:32;;;;;;;;;;;;;;;;;;4221755;28;1007;-60
2022/01/06 04:31:53;;;;;;;;;;;;;;;;;;4221342;28;2031;-61
2022/01/06 04:34:13;;;;;;;;;;;;;;;;;;4221177;28;1065;-61
2022/01/06 04:36:33;;;;;;;;;;;;;;;;;;4221694;28;825;-61
2022/01/06 04:38:54;;;;;;;;;;;;;;;;;;4221361;28;1183;-61
2022/01/06 04:41:14;;;;;;;;;;;;;;;;;;4221466;28;1131;-61
2022/01/06 04:43:34;;;;;;;;;;;;;;;;;;4221121;28;1628;-60
2022/01/06 04:45:54;;;;;;;;;;;;;;;;;;4221221;28;944;-60
2022/01/06 04:48:15;;;;;;;;;;;;;;;;;;4221376;28;1184;-61
2022/01/06 04:50:35;;;;;;;;;;;;;;;;;;4221440;28;1909;-60
2022/01/06 04:52:55;;;;;;;;;;;;;;;;;;4221085;28;1269;-61
2022/01/06 04:55:16;;;;;;;;;;;;;;;;;;4220126;28;943;-61
2022/01/06 04:57:36;;;;;;;;;;;;;;;;;;4221063;28;996;-61
2022/01/06 04:59:57;;;;;;;;;;;;;;;;;;4221201;28;1133;-61
2022/01/06 05:02:17;;;;;;;;;;;;;;;;;;4217172;28;2542;-61
2022/01/06 05:04:38;;;;;;;;;;;;;;;;;;4212904;28;853;-61
2022/01/06 05:06:58;;;;;;;;;;;;;;;;;;4219780;28;999;-61
2022/01/06 05:09:18;;;;;;;;;;;;;;;;;;4221350;28;941;-61
2022/01/06 05:11:39;;;;;;;;;;;;;;;;;;4220853;28;1979;-61
2022/01/06 05:13:59;;;;;;;;;;;;;;;;;;4221593;28;1008;-61
2022/01/06 05:16:19;;;;;;;;;;;;;;;;;;4221114;28;1140;-61
2022/01/06 05:18:39;;;;;;;;;;;;;;;;;;4220982;28;990;-61
2022/01/06 05:21:00;;;;;;;;;;;;;;;;;;4224051;28;926;-61
2022/01/06 05:23:20;;;;;;;;;;;;;;;;;;4223938;28;1064;-61
2022/01/06 05:25:41;;;;;;;;;;;;;;;;;;4223571;28;1026;-61
2022/01/06 05:28:02;;;;;;;;;;;;;;;;;;4223951;28;1147;-61
2022/01/06 05:30:22;;;;;;;;;;;;;;;;;;4223938;28;1014;-61
2022/01/06 05:32:43;;;;;;;;;;;;;;;;;;4223983;28;1060;-61
2022/01/06 05:35:03;;;;;;;;;;;;;;;;;;4223735;28;1068;-61
2022/01/06 05:37:23;;;;;;;;;;;;;;;;;;4223857;28;1092;-61
2022/01/06 05:39:44;;;;;;;;;;;;;;;;;;4223495;28;999;-61
2022/01/06 05:42:04;;;;;;;;;;;;;;;;;;4223931;28;1036;-61
2022/01/06 05:44:25;;;;;;;;;;;;;;;;;;4223597;28;962;-61
2022/01/06 05:46:47;;;;;;;;;;;;;;;;;;4223544;28;1200;-61
2022/01/06 05:49:08;;;;;;;;;;;;;;;;;;4223519;28;944;-60
2022/01/06 05:51:28;;;;;;;;;;;;;;;;;;4223679;28;2243;-61
2022/01/06 05:53:50;;;;;;;;;;;;;;;;;;4223763;28;1128;-61
2022/01/06 05:56:10;;;;;;;;;;;;;;;;;;4223425;28;1116;-61
2022/01/06 05:58:31;;;;;;;;;;;;;;;;;;4223551;28;987;-61
2022/01/06 06:00:51;;;;;;;;;;;;;;;;;;4223507;28;1100;-61
2022/01/06 06:03:11;;;;;;;;;;;;;;;;;;4223496;28;1097;-61
2022/01/06 06:05:32;;;;;;;;;;;;;;;;;;4223425;28;1071;-61
2022/01/06 06:07:52;;;;;;;;;;;;;;;;;;4223365;28;957;-61
2022/01/06 06:10:12;;;;;;;;;;;;;;;;;;4223354;28;1120;-61
2022/01/06 06:12:32;;;;;;;;;;;;;;;;;;4223345;28;1905;-61
2022/01/06 06:14:53;;;;;;;;;;;;;;;;;;4221900;28;1004;-61
2022/01/06 06:17:13;;;;;;;;;;;;;;;;;;4228222;28;1087;-61
2022/01/06 06:19:34;;;;;;;;;;;;;;;;;;4240403;28;1542;-61
2022/01/06 06:21:55;;;;;;;;;;;;;;;;;;4240312;28;1048;-61
2022/01/06 06:24:15;;;;;;;;;;;;;;;;;;4240053;28;951;-62
2022/01/06 06:26:36;;;;;;;;;;;;;;;;;;4240097;28;853;-61
2022/01/06 06:28:56;;;;;;;;;;;;;;;;;;4239747;28;979;-61
2022/01/06 06:31:16;;;;;;;;;;;;;;;;;;4239201;28;1977;-61
2022/01/06 06:33:36;;;;;;;;;;;;;;;;;;4240074;28;1181;-61
2022/01/06 06:35:56;;;;;;;;;;;;;;;;;;4239618;28;1004;-61
2022/01/06 06:38:16;;;;;;;;;;;;;;;;;;4239455;28;952;-61
2022/01/06 06:40:36;;;;;;;;;;;;;;;;;;4239585;28;995;-61
2022/01/06 06:42:57;;;;;;;;;;;;;;;;;;4239506;28;1153;-61
2022/01/06 06:45:17;;;;;;;;;;;;;;;;;;4239358;28;1048;-62
2022/01/06 06:47:37;;;;;;;;;;;;;;;;;;4239663;28;1100;-61
2022/01/06 06:49:59;;;;;;;;;;;;;;;;;;4239404;28;1093;-61
2022/01/06 06:52:19;;;;;;;;;;;;;;;;;;4239859;28;1905;-61
2022/01/06 06:54:39;;;;;;;;;;;;;;;;;;4239364;28;1056;-62
2022/01/06 06:56:59;;;;;;;;;;;;;;;;;;4239299;28;975;-61
2022/01/06 06:59:20;;;;;;;;;;;;;;;;;;4239318;28;1306;-61
2022/01/06 07:01:40;;;;;;;;;;;;;;;;;;4239426;28;1035;-61
2022/01/06 07:04:00;;;;;;;;;;;;;;;;;;4239332;28;1015;-61
2022/01/06 07:06:20;;;;;;;;;;;;;;;;;;4239450;28;1151;-61
2022/01/06 07:08:40;;;;;;;;;;;;;;;;;;4239397;28;1296;-62
2022/01/06 07:11:00;;;;;;;;;;;;;;;;;;4239278;28;1245;-61
2022/01/06 07:13:20;;;;;;;;;;;;;;;;;;4239457;28;1095;-61
2022/01/06 07:15:41;;;;;;;;;;;;;;;;;;4239443;28;1280;-61
2022/01/06 07:18:02;;;;;;;;;;;;;;;;;;4238932;28;1189;-62
2022/01/06 07:20:22;;;;;;;;;;;;;;;;;;4239153;28;1149;-61
2022/01/06 07:22:42;;;;;;;;;;;;;;;;;;4239047;28;897;-61
2022/01/06 07:25:03;;;;;;;;;;;;;;;;;;4238853;28;1167;-62
2022/01/06 07:27:23;;;;;;;;;;;;;;;;;;4239101;28;1271;-61
2022/01/06 07:29:43;;;;;;;;;;;;;;;;;;4239006;28;946;-61
2022/01/06 07:32:04;;;;;;;;;;;;;;;;;;4238822;28;1980;-62
2022/01/06 07:34:24;;;;;;;;;;;;;;;;;;4238773;28;1057;-61
2022/01/06 07:36:44;;;;;;;;;;;;;;;;;;4238709;28;1196;-61
2022/01/06 07:39:04;;;;;;;;;;;;;;;;;;4238598;28;1016;-61
2022/01/06 07:41:24;;;;;;;;;;;;;;;;;;4238760;28;928;-62
2022/01/06 07:43:45;;;;;;;;;;;;;;;;;;4239037;28;961;-61
2022/01/06 07:46:06;;;;;;;;;;;;;;;;;;4239055;28;868;-62
2022/01/06 07:48:36;;;;;;;;;;;;;;;;;;4239151;28;979;-61
2022/01/06 07:50:57;;;;;;;;;;;;;;;;;;4238677;28;1059;-61
2022/01/06 07:53:17;;;;;;;;;;;;;;;;;;4238747;28;1980;-61
2022/01/06 07:55:37;;;;;;;;;;;;;;;;;;4239015;28;1002;-62
2022/01/06 07:57:58;;;;;;;;;;;;;;;;;;4235670;28;1213;-61
2022/01/06 08:00:19;;;;;;;;;;;;;;;;;;4220778;28;1854;-61
2022/01/06 08:02:39;;;;;;;;;;;;;;;;;;4221210;28;1555;-61
2022/01/06 08:04:59;;;;;;;;;;;;;;;;;;4220939;28;1411;-61
2022/01/06 08:07:19;;;;;;;;;;;;;;;;;;4220967;28;1588;-61
2022/01/06 08:09:45;;;;;;;;;;;;;;;;;;4220844;28;1358;-61
2022/01/06 08:12:05;;;;;;;;;;;;;;;;;;4218759;28;1985;-61
2022/01/06 08:14:26;;;;;;;;;;;;;;;;;;4221052;28;1814;-62
2022/01/06 08:16:47;;;;;;;;;;;;;;;;;;4218666;28;1831;-61
2022/01/06 08:19:07;;;;;;;;;;;;;;;;;;4220659;28;1946;-61
2022/01/06 08:21:27;;;;;;;;;;;;;;;;;;4219897;28;1379;-62
2022/01/06 08:23:47;;;;;;;;;;;;;;;;;;4220762;28;1766;-61
2022/01/06 08:26:08;;;;;;;;;;;;;;;;;;4219945;28;1982;-61
2022/01/06 08:28:29;;;;;;;;;;;;;;;;;;4221216;28;1500;-61
2022/01/06 08:30:49;;;;;;;;;;;;;;;;;;4221723;28;1081;-62
2022/01/06 08:33:09;;;;;;;;;;;;;;;;;;4221268;28;1980;-61
2022/01/06 08:35:29;;;;;;;;;;;;;;;;;;4221647;28;928;-62
2022/01/06 08:37:50;;;;;;;;;;;;;;;;;;4221068;28;1551;-61
2022/01/06 08:40:10;;;;;;;;;;;;;;;;;;4223627;28;2091;-62
2022/01/06 08:42:30;;;;;;;;;;;;;;;;;;4231621;28;2026;-61
2022/01/06 08:44:51;;;;;;;;;;;;;;;;;;4229147;28;1811;-61
2022/01/06 08:47:11;;;;;;;;;;;;;;;;;;4228883;27;1526;-61
2022/01/06 08:49:32;;;;;;;;;;;;;;;;;;4226126;28;1483;-62
2022/01/06 08:51:52;;;;;;;;;;;;;;;;;;4225831;28;1902;-61
2022/01/06 08:54:12;;;;;;;;;;;;;;;;;;4231340;28;1958;-62
2022/01/06 08:56:33;;;;;;;;;;;;;;;;;;4231991;28;1441;-61
2022/01/06 08:58:53;;;;;;;;;;;;;;;;;;4229033;28;2048;-61
2022/01/06 09:01:14;;;;;;;;;;;;;;;;;;4231934;28;1742;-62
2022/01/06 09:03:35;;;;;;;;;;;;;;;;;;4227377;28;2181;-62
2022/01/06 09:05:55;;;;;;;;;;;;;;;;;;4228363;28;1904;-61
2022/01/06 09:08:15;;;;;;;;;;;;;;;;;;4225132;28;2123;-61
2022/01/06 09:10:36;;;;;;;;;;;;;;;;;;4229629;28;1647;-62
2022/01/06 09:12:56;;;;;;;;;;;;;;;;;;4234210;27;1987;-62
2022/01/06 09:15:16;;;;;;;;;;;;;;;;;;4233307;28;1690;-62
2022/01/06 09:17:38;;;;;;;;;;;;;;;;;;4231157;28;1478;-61
2022/01/06 09:19:58;;;;;;;;;;;;;;;;;;4212389;28;1777;-61
2022/01/06 09:22:19;;;;;;;;;;;;;;;;;;4230600;28;2144;-62
2022/01/06 09:24:39;;;;;;;;;;;;;;;;;;4230460;28;1469;-61
2022/01/06 09:26:59;;;;;;;;;;;;;;;;;;4233371;28;2211;-61
2022/01/06 09:29:19;;;;;;;;;;;;;;;;;;4234146;28;2123;-61
2022/01/06 09:31:40;;;;;;;;;;;;;;;;;;4230442;28;1978;-61
2022/01/06 09:34:01;;;;;;;;;;;;;;;;;;4231019;28;1477;-62
2022/01/06 09:36:22;;;;;;;;;;;;;;;;;;4233605;28;1934;-61
2022/01/06 09:38:45;;;;;;;;;;;;;;;;;;4233851;28;1898;-61
2022/01/06 09:41:06;;;;;;;;;;;;;;;;;;4228463;28;2251;-61
2022/01/06 09:43:26;;;;;;;;;;;;;;;;;;4206984;28;1217;-61
2022/01/06 09:45:47;;;;;;;;;;;;;;;;;;4206252;28;1202;-61
2022/01/06 09:48:08;;;;;;;;;;;;;;;;;;4206550;28;1152;-61
2022/01/06 09:50:28;;;;;;;;;;;;;;;;;;4206806;28;1052;-62
2022/01/06 09:52:49;;;;;;;;;;;;;;;;;;4207178;28;1902;-61
2022/01/06 09:55:09;;;;;;;;;;;;;;;;;;4206723;28;994;-61
2022/01/06 09:57:29;;;;;;;;;;;;;;;;;;4206752;28;1039;-61
2022/01/06 09:59:50;;;;;;;;;;;;;;;;;;4206829;28;941;-62
2022/01/06 10:02:16;;;;;;;;;;;;;;;;;;4206084;28;1077;-62
2022/01/06 10:04:37;;;;;;;;;;;;;;;;;;4206208;28;939;-62
2022/01/06 10:06:57;;;;;;;;;;;;;;;;;;4206627;28;1168;-62
2022/01/06 10:09:17;;;;;;;;;;;;;;;;;;4219614;28;1050;-62
2022/01/06 10:11:38;;;;;;;;;;;;;;;;;;4206226;28;1259;-62
2022/01/06 10:13:59;;;;;;;;;;;;;;;;;;4206207;28;1902;-62
2022/01/06 10:16:19;;;;;;;;;;;;;;;;;;4206526;28;1271;-62
2022/01/06 10:18:39;;;;;;;;;;;;;;;;;;4206560;28;1249;-63
2022/01/06 10:21:00;;;;;;;;;;;;;;;;;;4206294;28;1113;-62
2022/01/06 10:23:20;;;;;;;;;;;;;;;;;;4206345;28;943;-61
2022/01/06 10:25:44;;;;;;;;;;;;;;;;;;4206267;28;1022;-62
2022/01/06 10:28:05;;;;;;;;;;;;;;;;;;4206088;28;1764;-61
2022/01/06 10:30:26;;;;;;;;;;;;;;;;;;4228339;28;1684;-61
2022/01/06 10:32:46;;;;;;;;;;;;;;;;;;4231864;28;1901;-62
2022/01/06 10:35:07;;;;;;;;;;;;;;;;;;4239846;28;985;-62
2022/01/06 10:37:27;;;;;;;;;;;;;;;;;;4239462;28;1023;-62
2022/01/06 10:39:50;;;;;;;;;;;;;;;;;;4239411;28;1187;-62
2022/01/06 10:42:11;;;;;;;;;;;;;;;;;;4239745;28;1359;-61
2022/01/06 10:44:31;;;;;;;;;;;;;;;;;;4239536;28;878;-62
2022/01/06 10:46:51;;;;;;;;;;;;;;;;;;4240065;28;971;-62
2022/01/06 10:49:12;;;;;;;;;;;;;;;;;;4239667;28;1199;-59
2022/01/06 10:51:32;;;;;;;;;;;;;;;;;;4239514;28;944;-62
2022/01/06 10:53:53;;;;;;;;;;;;;;;;;;4239503;28;1905;-61
2022/01/06 10:56:13;;;;;;;;;;;;;;;;;;4239444;28;1015;-60
2022/01/06 10:58:33;;;;;;;;;;;;;;;;;;4239814;28;930;-62
2022/01/06 11:00:53;;;;;;;;;;;;;;;;;;4239258;28;965;-62
2022/01/06 11:03:14;;;;;;;;;;;;;;;;;;4238820;28;1027;-62
2022/01/06 11:05:34;;;;;;;;;;;;;;;;;;4238645;28;1027;-61
2022/01/06 11:07:54;;;;;;;;;;;;;;;;;;4230823;28;2298;-62
2022/01/06 11:10:18;;;;;;;;;;;;;;;;;;4205574;28;838;-61
2022/01/06 11:12:39;;;;;;;;;;;;;;;;;;4208123;28;2518;-61
2022/01/06 11:14:59;;;;;;;;;;;;;;;;;;4217460;28;1492;-61
2022/01/06 11:17:21;;;;;;;;;;;;;;;;;;4221321;28;1860;-61
2022/01/06 11:19:42;;;;;;;;;;;;;;;;;;4205010;28;1028;-62
2022/01/06 11:22:04;;;;;;;;;;;;;;;;;;4205098;28;1299;-62
2022/01/06 11:24:24;;;;;;;;;;;;;;;;;;4220302;28;980;-62
2022/01/06 11:26:44;;;;;;;;;;;;;;;;;;4208455;28;1029;-61
2022/01/06 11:29:05;;;;;;;;;;;;;;;;;;4221888;28;1031;-61
2022/01/06 11:31:25;;;;;;;;;;;;;;;;;;4218540;28;1789;-62
2022/01/06 11:33:46;;;;;;;;;;;;;;;;;;4222035;28;1905;-62
2022/01/06 11:36:06;;;;;;;;;;;;;;;;;;4206624;28;1010;-62
2022/01/06 11:38:27;;;;;;;;;;;;;;;;;;4223142;28;970;-62
2022/01/06 11:40:47;;;;;;;;;;;;;;;;;;4221837;28;950;-62
2022/01/06 11:43:07;;;;;;;;;;;;;;;;;;4221305;28;1178;-62
2022/01/06 11:45:28;;;;;;;;;;;;;;;;;;4221655;28;1138;-62
2022/01/06 11:47:48;;;;;;;;;;;;;;;;;;4222066;28;993;-62
2022/01/06 11:50:08;;;;;;;;;;;;;;;;;;4221665;28;1296;-61
2022/01/06 11:52:29;;;;;;;;;;;;;;;;;;4222176;28;1044;-61
2022/01/06 11:54:49;;;;;;;;;;;;;;;;;;4221449;28;1910;-62
2022/01/06 11:57:09;;;;;;;;;;;;;;;;;;4221731;28;1050;-62
2022/01/06 11:59:29;;;;;;;;;;;;;;;;;;4221457;28;1064;-61
2022/01/06 12:01:50;;;;;;;;;;;;;;;;;;4221342;28;934;-62
2022/01/06 12:04:10;;;;;;;;;;;;;;;;;;4221532;28;1097;-62
2022/01/06 12:06:30;;;;;;;;;;;;;;;;;;4206333;28;1442;-62
2022/01/06 12:08:51;;;;;;;;;;;;;;;;;;4219397;28;1065;-62
2022/01/06 12:11:11;;;;;;;;;;;;;;;;;;4221285;28;996;-61
2022/01/06 12:13:31;;;;;;;;;;;;;;;;;;4204260;28;1926;-62
2022/01/06 12:15:51;;;;;;;;;;;;;;;;;;4204388;28;1000;-62
2022/01/06 12:18:12;;;;;;;;;;;;;;;;;;4204431;28;1286;-61
2022/01/06 12:20:32;;;;;;;;;;;;;;;;;;4204339;28;1091;-62
2022/01/06 12:22:52;;;;;;;;;;;;;;;;;;4204275;28;1139;-61
2022/01/06 12:25:13;;;;;;;;;;;;;;;;;;4204505;28;1398;-62
2022/01/06 12:27:34;;;;;;;;;;;;;;;;;;4213939;28;1188;-62
2022/01/06 12:29:54;;;;;;;;;;;;;;;;;;4220640;28;1132;-61
2022/01/06 12:32:15;;;;;;;;;;;;;;;;;;4220912;28;1361;-61
2022/01/06 12:34:35;;;;;;;;;;;;;;;;;;4220556;28;1909;-62
2022/01/06 12:36:55;;;;;;;;;;;;;;;;;;4221239;28;989;-62
2022/01/06 12:39:15;;;;;;;;;;;;;;;;;;4221074;28;1011;-62
2022/01/06 12:41:36;;;;;;;;;;;;;;;;;;4220720;28;1372;-62
2022/01/06 12:43:57;;;;;;;;;;;;;;;;;;4220579;28;1181;-61
2022/01/06 12:46:17;;;;;;;;;;;;;;;;;;4221269;28;1170;-61
2022/01/06 12:48:38;;;;;;;;;;;;;;;;;;4221437;28;997;-62
2022/01/06 12:50:59;;;;;;;;;;;;;;;;;;4220784;28;1506;-61
2022/01/06 12:53:19;;;;;;;;;;;;;;;;;;4220710;28;1993;-61
2022/01/06 12:55:39;;;;;;;;;;;;;;;;;;4220757;28;966;-62
2022/01/06 12:58:00;;;;;;;;;;;;;;;;;;4221257;28;1236;-62
2022/01/06 13:00:20;;;;;;;;;;;;;;;;;;4220873;28;1068;-62
2022/01/06 13:02:41;;;;;;;;;;;;;;;;;;4220699;28;1173;-61
2022/01/06 13:05:03;;;;;;;;;;;;;;;;;;4220941;28;1052;-61
2022/01/06 13:07:23;;;;;;;;;;;;;;;;;;4220354;28;1215;-61
2022/01/06 13:09:44;;;;;;;;;;;;;;;;;;4221216;28;1191;-61
2022/01/06 13:12:04;;;;;;;;;;;;;;;;;;4220864;28;1083;-61
2022/01/06 13:14:24;;;;;;;;;;;;;;;;;;4220923;28;1906;-61
2022/01/06 13:16:45;;;;;;;;;;;;;;;;;;4220609;28;1058;-61
2022/01/06 13:19:06;;;;;;;;;;;;;;;;;;4220958;28;1137;-61
2022/01/06 13:21:28;;;;;;;;;;;;;;;;;;4220963;28;925;-61
2022/01/06 13:23:49;;;;;;;;;;;;;;;;;;4219881;28;1355;-61
2022/01/06 13:26:10;;;;;;;;;;;;;;;;;;4221088;28;1017;-61
2022/01/06 13:28:30;;;;;;;;;;;;;;;;;;4220981;28;1020;-61
2022/01/06 13:30:51;;;;;;;;;;;;;;;;;;4220590;28;1060;-61
2022/01/06 13:33:12;;;;;;;;;;;;;;;;;;4220371;28;1074;-61
2022/01/06 13:35:32;;;;;;;;;;;;;;;;;;4220148;28;975;-61
2022/01/06 13:37:52;;;;;;;;;;;;;;;;;;4220794;28;961;-61
2022/01/06 13:40:12;;;;;;;;;;;;;;;;;;4220744;28;1109;-61
2022/01/06 13:42:33;;;;;;;;;;;;;;;;;;4222834;28;1283;-61
2022/01/06 13:44:56;;;;;;;;;;;;;;;;;;4221999;28;977;-61
2022/01/06 13:47:19;;;;;;;;;;;;;;;;;;4220762;28;985;-61
2022/01/06 13:52:19;;;;;;;;;;;;;;;;;;4223425;28;1103;-61
2022/01/06 13:54:39;;;;;;;;;;;;;;;;;;4223146;28;1905;-61
2022/01/06 13:56:59;;;;;;;;;;;;;;;;;;4222707;28;1113;-61
2022/01/06 13:59:19;;;;;;;;;;;;;;;;;;4223052;28;1086;-61
2022/01/06 14:01:39;;;;;;;;;;;;;;;;;;4223183;28;957;-61
2022/01/06 14:04:00;;;;;;;;;;;;;;;;;;4222606;28;1412;-61
2022/01/06 14:06:20;;;;;;;;;;;;;;;;;;4223328;28;985;-61
2022/01/06 14:08:40;;;;;;;;;;;;;;;;;;4205956;28;931;-61
2022/01/06 14:11:01;;;;;;;;;;;;;;;;;;4205970;28;966;-61
2022/01/06 14:13:22;;;;;;;;;;;;;;;;;;4222391;28;1325;-61
2022/01/06 14:15:43;;;;;;;;;;;;;;;;;;4222815;28;1902;-61
2022/01/06 14:18:04;;;;;;;;;;;;;;;;;;4223014;28;1338;-61
2022/01/06 14:20:24;;;;;;;;;;;;;;;;;;4222845;28;1005;-61
2022/01/06 14:22:44;;;;;;;;;;;;;;;;;;4222605;28;1223;-61
2022/01/06 14:25:05;;;;;;;;;;;;;;;;;;4222879;28;1110;-61
2022/01/06 14:27:25;;;;;;;;;;;;;;;;;;4222276;28;1372;-61
2022/01/06 14:29:45;;;;;;;;;;;;;;;;;;4222822;28;987;-61
2022/01/06 14:32:05;;;;;;;;;;;;;;;;;;4222734;28;1075;-61
2022/01/06 14:34:26;;;;;;;;;;;;;;;;;;4222288;28;1901;-60
2022/01/06 14:36:47;;;;;;;;;;;;;;;;;;4222929;28;1296;-61
2022/01/06 14:39:07;;;;;;;;;;;;;;;;;;4222872;28;1000;-61
2022/01/06 14:41:28;;;;;;;;;;;;;;;;;;4222483;28;1115;-61
2022/01/06 14:43:48;;;;;;;;;;;;;;;;;;4222239;28;1376;-61
2022/01/06 14:46:09;;;;;;;;;;;;;;;;;;4222293;28;1054;-61
2022/01/06 14:48:30;;;;;;;;;;;;;;;;;;4222650;28;1337;-61
2022/01/06 14:50:51;;;;;;;;;;;;;;;;;;4222017;28;966;-61
2022/01/06 14:53:11;;;;;;;;;;;;;;;;;;4222071;28;1279;-61
2022/01/06 14:55:31;;;;;;;;;;;;;;;;;;4222351;28;1981;-61
2022/01/06 14:57:52;;;;;;;;;;;;;;;;;;4221929;28;1228;-61
2022/01/06 15:00:12;;;;;;;;;;;;;;;;;;4222473;28;958;-61
2022/01/06 15:02:32;;;;;;;;;;;;;;;;;;4222744;28;825;-60
2022/01/06 15:04:53;;;;;;;;;;;;;;;;;;4221824;28;1044;-61
2022/01/06 15:07:13;;;;;;;;;;;;;;;;;;4222388;28;1854;-60
2022/01/06 15:09:33;;;;;;;;;;;;;;;;;;4222221;28;954;-60
2022/01/06 15:11:54;;;;;;;;;;;;;;;;;;4221824;28;1205;-60
2022/01/06 15:14:14;;;;;;;;;;;;;;;;;;4220987;28;1905;-60
2022/01/06 15:16:35;;;;;;;;;;;;;;;;;;4221055;28;1516;-61
2022/01/06 15:18:55;;;;;;;;;;;;;;;;;;4221489;28;1745;-61
2022/01/06 15:21:16;;;;;;;;;;;;;;;;;;4231119;28;1872;-61
2022/01/06 15:23:39;;;;;;;;;;;;;;;;;;4221266;28;1225;-61
2022/01/06 15:26:10;;;;;;;;;;;;;;;;;;4221355;28;1600;-61
2022/01/06 15:28:39;;;;;;;;;;;;;;;;;;4222390;28;871;-61
2022/01/06 15:31:00;;;;;;;;;;;;;;;;;;4222415;28;1087;-61
2022/01/06 15:33:20;;;;;;;;;;;;;;;;;;4221884;28;947;-60
2022/01/06 15:35:40;;;;;;;;;;;;;;;;;;4221494;28;1980;-60
2022/01/06 15:38:04;;;;;;;;;;;;;;;;;;4221670;28;1129;-60
2022/01/06 15:40:29;;;;;;;;;;;;;;;;;;4220830;28;1598;-60
2022/01/06 15:43:05;;;;;;;;;;;;;;;;;;4221229;28;1576;-62
2022/01/06 15:45:40;;;;;;;;;;;;;;;;;;4219854;28;1431;-60
2022/01/06 15:48:00;;;;;;;;;;;;;;;;;;4221471;28;1293;-61
2022/01/06 15:50:20;;;;;;;;;;;;;;;;;;4221546;28;1376;-61
2022/01/06 15:52:41;;;;;;;;;;;;;;;;;;4221434;28;909;-60
2022/01/06 15:55:01;;;;;;;;;;;;;;;;;;4221584;28;1917;-60
2022/01/06 15:57:22;;;;;;;;;;;;;;;;;;4218949;28;2549;-60
2022/01/06 15:59:50;;;;;;;;;;;;;;;;;;4219684;28;1798;-60
2022/01/06 16:07:23;;;;;;;;;;;;;;;;;;4216422;28;1535;-60
2022/01/06 16:09:44;;;;;;;;;;;;;;;;;;4219654;28;1144;-60
2022/01/06 16:12:04;;;;;;;;;;;;;;;;;;4219456;28;1193;-60
2022/01/06 16:14:26;;;;;;;;;;;;;;;;;;4219557;28;1466;-60
2022/01/06 16:16:50;;;;;;;;;;;;;;;;;;4209487;28;2064;-60
2022/01/06 16:19:10;;;;;;;;;;;;;;;;;;4219872;28;1040;-60
2022/01/06 16:21:30;;;;;;;;;;;;;;;;;;4219251;28;1954;-60
2022/01/06 16:23:51;;;;;;;;;;;;;;;;;;4217476;28;1042;-60
2022/01/06 16:26:12;;;;;;;;;;;;;;;;;;4219248;28;1659;-60
2022/01/06 16:28:32;;;;;;;;;;;;;;;;;;4203134;28;1047;-60
2022/01/06 16:30:52;;;;;;;;;;;;;;;;;;4202747;28;949;-60
2022/01/06 16:33:13;;;;;;;;;;;;;;;;;;4210417;28;1419;-60